createdAt,value
2019-05-06T00:02:10.816Z,98874.19
2019-05-06T00:04:37.424Z,98869.30
2019-05-06T00:07:04.368Z,98862.70
2019-05-06T00:09:31.072Z,98860.06
2019-05-06T00:11:57.655Z,98872.30
2019-05-06T00:14:24.261Z,98860.06
2019-05-06T00:16:50.839Z,98862.70
2019-05-06T00:19:17.425Z,98860.06
2019-05-06T00:21:44.381Z,98863.08
2019-05-06T00:24:11.080Z,98865.24
2019-05-06T00:26:37.658Z,98869.10
2019-05-06T00:29:04.578Z,98869.10
2019-05-06T00:31:31.256Z,98868.62
2019-05-06T00:33:57.832Z,98872.11
2019-05-06T00:36:24.435Z,98869.86
2019-05-06T00:38:51.023Z,98870.70
2019-05-06T00:41:17.629Z,98861.57
2019-05-06T00:43:44.219Z,98858.94
2019-05-06T00:46:10.830Z,98855.92
2019-05-06T00:48:37.394Z,98857.23
2019-05-06T00:51:04.620Z,98868.73
2019-05-06T00:53:31.337Z,98868.73
2019-05-06T00:55:57.959Z,98868.35
2019-05-06T00:58:24.539Z,98868.91
2019-05-06T01:00:51.139Z,98869.02
2019-05-06T01:03:17.714Z,98867.70
2019-05-06T01:05:44.504Z,98872.59
2019-05-06T01:08:11.170Z,98863.94
2019-05-06T01:10:37.784Z,98862.73
2019-05-06T01:13:04.383Z,98866.79
2019-05-06T01:15:31.000Z,98869.52
2019-05-06T01:17:57.569Z,98861.42
2019-05-06T01:20:24.744Z,98866.88
2019-05-06T01:22:51.443Z,98868.39
2019-05-06T01:25:18.070Z,98873.87
2019-05-06T01:27:44.629Z,98874.82
2019-05-06T01:30:11.221Z,98869.64
2019-05-06T01:32:37.798Z,98870.12
2019-05-06T01:35:04.797Z,98865.37
2019-05-06T01:37:31.556Z,98871.12
2019-05-06T01:39:58.267Z,98874.22
2019-05-06T01:42:24.940Z,98864.63
2019-05-06T01:44:51.513Z,98879.58
2019-05-06T01:47:18.103Z,98867.83
2019-05-06T01:49:44.683Z,98870.08
2019-05-06T01:52:11.286Z,98869.70
2019-05-06T01:54:37.856Z,98870.08
2019-05-06T01:57:04.752Z,98860.77
2019-05-06T01:59:31.343Z,98863.88
2019-05-06T02:02:01.051Z,98864.34
2019-05-06T02:04:26.240Z,98861.70
2019-05-06T02:06:54.606Z,98855.59
2019-05-06T02:09:21.137Z,98866.50
2019-05-06T02:11:48.166Z,98864.34
2019-05-06T02:14:14.997Z,98868.77
2019-05-06T02:16:43.519Z,98867.83
2019-05-06T02:19:09.900Z,98867.35
2019-05-06T02:21:36.525Z,98868.20
2019-05-06T02:24:04.274Z,98868.58
2019-05-06T02:26:31.081Z,98873.84
2019-05-06T02:28:57.654Z,98870.27
2019-05-06T02:31:25.669Z,98877.23
2019-05-06T02:33:55.484Z,98869.33
2019-05-06T02:36:20.824Z,98869.17
2019-05-06T02:38:51.611Z,98871.02
2019-05-06T02:41:15.744Z,98867.16
2019-05-06T02:43:43.499Z,98867.26
2019-05-06T02:46:12.876Z,98864.81
2019-05-06T02:48:38.636Z,98865.00
2019-05-06T02:51:05.260Z,98862.20
2019-05-06T02:53:33.389Z,98860.51
2019-05-06T02:56:00.162Z,98854.87
2019-05-06T02:58:26.769Z,98855.71
2019-05-06T03:00:53.898Z,98845.64
2019-05-06T03:03:23.281Z,98846.02
2019-05-06T03:05:49.133Z,98845.08
2019-05-06T03:08:15.800Z,98841.51
2019-05-06T03:10:44.198Z,98840.28
2019-05-06T03:13:13.905Z,98833.23
2019-05-06T03:15:38.999Z,98837.28
2019-05-06T03:18:05.606Z,98846.02
2019-05-06T03:20:32.856Z,98846.02
2019-05-06T03:23:03.514Z,98848.19
2019-05-06T03:25:28.815Z,98848.19
2019-05-06T03:27:55.431Z,98862.58
2019-05-06T03:30:25.380Z,98851.67
2019-05-06T03:33:27.403Z,98857.41
2019-05-06T03:35:33.149Z,98854.30
2019-05-06T03:37:46.975Z,98858.63
2019-05-06T03:40:13.959Z,98853.92
2019-05-06T03:42:42.647Z,98852.05
2019-05-06T03:45:08.977Z,98853.36
2019-05-06T03:47:35.601Z,98856.00
2019-05-06T03:50:04.744Z,98862.95
2019-05-06T03:52:33.853Z,98856.38
2019-05-06T03:54:58.813Z,98856.25
2019-05-06T03:57:25.389Z,98855.78
2019-05-06T03:59:52.883Z,98858.79
2019-05-06T04:02:19.749Z,98860.11
2019-05-06T04:04:46.366Z,98860.48
2019-05-06T04:07:13.875Z,98863.97
2019-05-06T04:09:43.958Z,98866.50
2019-05-06T04:12:09.204Z,98861.70
2019-05-06T04:14:35.859Z,98862.08
2019-05-06T04:17:03.218Z,98864.25
2019-05-06T04:19:33.099Z,98863.31
2019-05-06T04:21:58.404Z,98864.16
2019-05-06T04:24:24.998Z,98866.78
2019-05-06T04:26:53.351Z,98865.00
2019-05-06T04:29:19.926Z,98862.74
2019-05-06T04:31:46.495Z,98863.59
2019-05-06T04:34:18.285Z,98863.59
2019-05-06T04:36:44.030Z,98859.17
2019-05-06T04:39:12.838Z,98860.89
2019-05-06T04:41:38.052Z,98858.64
2019-05-06T04:44:04.726Z,98861.64
2019-05-06T04:46:34.407Z,98861.27
2019-05-06T04:48:59.635Z,98862.49
2019-05-06T04:51:26.212Z,98859.77
2019-05-06T04:53:53.756Z,98857.95
2019-05-06T04:56:23.440Z,98858.70
2019-05-06T04:58:48.822Z,98852.02
2019-05-06T05:01:15.862Z,98853.70
2019-05-06T05:03:42.884Z,98846.55
2019-05-06T05:06:09.585Z,98848.72
2019-05-06T05:08:36.151Z,98852.58
2019-05-06T05:11:03.565Z,98850.79
2019-05-06T05:13:32.785Z,98848.06
2019-05-06T05:15:58.741Z,98860.67
2019-05-06T05:18:25.320Z,98858.41
2019-05-06T05:20:52.841Z,98865.00
2019-05-06T05:23:19.613Z,98866.32
2019-05-06T05:25:46.226Z,98861.42
2019-05-06T05:28:13.217Z,98867.54
2019-05-06T05:30:39.891Z,98862.14
2019-05-06T05:33:06.458Z,98862.89
2019-05-06T05:35:33.068Z,98863.64
2019-05-06T05:37:59.652Z,98864.39
2019-05-06T05:40:26.239Z,98863.36
2019-05-06T05:42:52.808Z,98864.95
2019-05-06T05:45:19.438Z,98865.23
2019-05-06T05:47:46.024Z,98870.76
2019-05-06T05:50:13.316Z,98868.88
2019-05-06T05:52:42.478Z,98873.95
2019-05-06T05:55:08.326Z,98877.71
2019-05-06T05:57:34.936Z,98877.99
2019-05-06T06:00:03.827Z,98878.65
2019-05-06T06:02:29.867Z,98871.45
2019-05-06T06:04:57.617Z,98867.67
2019-05-06T06:07:24.608Z,98867.48
2019-05-06T06:09:52.437Z,98867.29
2019-05-06T06:12:19.159Z,98870.92
2019-05-06T06:14:47.381Z,98870.25
2019-05-06T06:17:14.171Z,98870.43
2019-05-06T06:19:42.486Z,98866.27
2019-05-06T06:22:09.237Z,98870.88
2019-05-06T06:24:35.809Z,98876.30
2019-05-06T06:27:03.040Z,98880.06
2019-05-06T06:29:29.907Z,98879.77
2019-05-06T06:31:56.551Z,98879.66
2019-05-06T06:34:23.161Z,98886.06
2019-05-06T06:36:49.780Z,98884.52
2019-05-06T06:39:16.374Z,98885.73
2019-05-06T06:41:42.954Z,98886.85
2019-05-06T06:44:09.533Z,98880.05
2019-05-06T06:46:36.113Z,98875.80
2019-05-06T06:49:03.248Z,98880.27
2019-05-06T06:51:30.006Z,98874.20
2019-05-06T06:53:56.696Z,98870.31
2019-05-06T06:56:23.257Z,98875.16
2019-05-06T06:58:49.868Z,98872.11
2019-05-06T07:01:16.528Z,98871.19
2019-05-06T07:03:43.207Z,98870.30
2019-05-06T07:06:09.786Z,98874.22
2019-05-06T07:08:37.733Z,98876.19
2019-05-06T07:11:04.653Z,98873.70
2019-05-06T07:13:32.686Z,98870.75
2019-05-06T07:15:59.423Z,98877.02
2019-05-06T07:18:26.045Z,98871.41
2019-05-06T07:20:52.723Z,98873.48
2019-05-06T07:23:19.396Z,98877.23
2019-05-06T07:25:45.977Z,98875.80
2019-05-06T07:28:13.617Z,98876.06
2019-05-06T07:30:41.966Z,98875.34
2019-05-06T07:33:08.652Z,98877.04
2019-05-06T07:35:40.439Z,98876.83
2019-05-06T07:38:03.652Z,98877.09
2019-05-06T07:40:32.499Z,98880.36
2019-05-06T07:42:58.543Z,98882.77
2019-05-06T07:45:25.132Z,98880.38
2019-05-06T07:47:53.065Z,98885.09
2019-05-06T07:50:22.504Z,98880.17
2019-05-06T07:52:49.076Z,98884.88
2019-05-06T07:55:18.734Z,98883.71
2019-05-06T07:57:45.403Z,98888.89
2019-05-06T08:00:12.520Z,98890.44
2019-05-06T08:02:39.454Z,98882.77
2019-05-06T08:05:10.232Z,98882.08
2019-05-06T08:07:36.829Z,98882.34
2019-05-06T08:10:03.450Z,98886.57
2019-05-06T08:12:32.508Z,98892.34
2019-05-06T08:14:58.357Z,98886.84
2019-05-06T08:17:24.975Z,98881.59
2019-05-06T08:19:52.950Z,98886.66
2019-05-06T08:22:19.794Z,98889.57
2019-05-06T08:24:46.415Z,98890.75
2019-05-06T08:27:12.977Z,98893.28
2019-05-06T08:29:39.575Z,98894.50
2019-05-06T08:32:06.154Z,98892.11
2019-05-06T08:34:34.279Z,98900.79
2019-05-06T08:37:02.470Z,98895.86
2019-05-06T08:39:29.213Z,98889.88
2019-05-06T08:41:56.873Z,98890.35
2019-05-06T08:44:23.994Z,98897.70
2019-05-06T08:46:53.104Z,98893.84
2019-05-06T08:49:18.927Z,98894.32
2019-05-06T08:51:45.495Z,98890.35
2019-05-06T08:54:13.371Z,98890.72
2019-05-06T08:56:40.094Z,98888.08
2019-05-06T08:59:08.902Z,98893.00
2019-05-06T09:01:38.087Z,98890.83
2019-05-06T09:04:11.376Z,98894.43
2019-05-06T09:06:34.383Z,98891.67
2019-05-06T09:09:02.434Z,98883.37
2019-05-06T09:11:29.242Z,98883.63
2019-05-06T09:13:55.821Z,98883.85
2019-05-06T09:16:24.601Z,98886.16
2019-05-06T09:18:53.297Z,98882.23
2019-05-06T09:21:19.573Z,98880.43
2019-05-06T09:23:46.172Z,98878.66
2019-05-06T09:26:13.206Z,98882.70
2019-05-06T09:28:42.951Z,98888.10
2019-05-06T09:31:09.773Z,98875.38
2019-05-06T09:33:36.414Z,98876.83
2019-05-06T09:36:14.810Z,98884.66
2019-05-06T09:38:42.477Z,98876.85
2019-05-06T09:41:09.293Z,98871.80
2019-05-06T09:43:37.967Z,98875.92
2019-05-06T09:46:04.613Z,98871.20
2019-05-06T09:48:33.038Z,98872.66
2019-05-06T09:50:59.522Z,98878.71
2019-05-06T09:53:26.096Z,98872.80
2019-05-06T09:55:52.694Z,98874.88
2019-05-06T09:58:19.845Z,98873.66
2019-05-06T10:00:46.440Z,98865.24
2019-05-06T10:03:13.217Z,98857.75
2019-05-06T10:05:39.947Z,98860.77
2019-05-06T10:08:06.586Z,98869.30
2019-05-06T10:10:34.700Z,98868.47
2019-05-06T10:13:02.795Z,98871.73
2019-05-06T10:15:29.635Z,98865.44
2019-05-06T10:17:56.318Z,98870.30
2019-05-06T10:20:22.888Z,98871.23
2019-05-06T10:22:49.502Z,98867.73
2019-05-06T10:25:16.084Z,98870.17
2019-05-06T10:27:42.670Z,98864.38
2019-05-06T10:30:09.246Z,98861.25
2019-05-06T10:32:35.853Z,98854.34
2019-05-06T10:35:02.924Z,98856.75
2019-05-06T10:37:29.619Z,98859.16
2019-05-06T10:39:56.183Z,98852.17
2019-05-06T10:42:23.105Z,98857.56
2019-05-06T10:44:49.788Z,98862.50
2019-05-06T10:47:16.391Z,98858.28
2019-05-06T10:49:42.967Z,98853.08
2019-05-06T10:52:09.586Z,98852.96
2019-05-06T10:54:36.177Z,98855.97
2019-05-06T10:57:05.884Z,98856.91
2019-05-06T10:59:32.728Z,98851.95
2019-05-06T11:01:59.472Z,98861.60
2019-05-06T11:04:26.059Z,98854.25
2019-05-06T11:06:52.717Z,98857.02
2019-05-06T11:09:19.357Z,98859.31
2019-05-06T11:11:45.957Z,98859.80
2019-05-06T11:14:22.865Z,98849.82
2019-05-06T11:16:49.785Z,98856.83
2019-05-06T11:19:16.358Z,98860.45
2019-05-06T11:21:45.005Z,98861.77
2019-05-06T11:24:12.269Z,98855.14
2019-05-06T11:26:39.143Z,98860.20
2019-05-06T11:29:05.711Z,98856.45
2019-05-06T11:31:33.166Z,98857.87
2019-05-06T11:34:00.214Z,98855.33
2019-05-06T11:36:26.889Z,98858.09
2019-05-06T11:38:53.462Z,98858.81
2019-05-06T11:41:20.058Z,98861.83
2019-05-06T11:43:46.701Z,98864.13
2019-05-06T11:46:13.276Z,98867.50
2019-05-06T11:48:39.874Z,98865.17
2019-05-06T11:51:06.442Z,98866.86
2019-05-06T11:53:33.056Z,98864.08
2019-05-06T11:56:01.939Z,98870.23
2019-05-06T11:58:27.945Z,98864.92
2019-05-06T12:00:54.540Z,98859.73
2019-05-06T12:03:22.909Z,98864.20
2019-05-06T12:05:49.504Z,98858.53
2019-05-06T12:08:16.115Z,98862.31
2019-05-06T12:10:42.698Z,98856.52
2019-05-06T12:13:09.309Z,98856.16
2019-05-06T12:15:35.886Z,98850.49
2019-05-06T12:18:03.767Z,98853.15
2019-05-06T12:20:32.813Z,98845.91
2019-05-06T12:22:59.056Z,98849.53
2019-05-06T12:25:25.669Z,98852.67
2019-05-06T12:27:52.717Z,98854.97
2019-05-06T12:30:19.366Z,98848.33
2019-05-06T12:32:45.959Z,98850.50
2019-05-06T12:35:12.586Z,98846.16
2019-05-06T12:37:39.269Z,98847.00
2019-05-06T12:40:05.887Z,98843.98
2019-05-06T12:42:33.180Z,98841.95
2019-05-06T12:45:03.288Z,98843.55
2019-05-06T12:47:28.219Z,98840.66
2019-05-06T12:49:55.117Z,98845.25
2019-05-06T12:52:23.113Z,98840.42
2019-05-06T12:54:50.045Z,98838.38
2019-05-06T12:57:16.674Z,98841.75
2019-05-06T12:59:43.288Z,98843.80
2019-05-06T13:02:09.867Z,98842.83
2019-05-06T13:04:50.262Z,98838.48
2019-05-06T13:07:04.884Z,98839.81
2019-05-06T13:09:33.229Z,98839.33
2019-05-06T13:11:59.790Z,98841.14
2019-05-06T13:14:26.394Z,98841.14
2019-05-06T13:16:53.370Z,98836.20
2019-05-06T13:19:22.619Z,98838.23
2019-05-06T13:21:48.443Z,98835.91
2019-05-06T13:24:15.045Z,98846.41
2019-05-06T13:26:43.046Z,98841.34
2019-05-06T13:29:09.874Z,98845.80
2019-05-06T13:31:36.484Z,98848.94
2019-05-06T13:34:03.128Z,98850.87
2019-05-06T13:36:29.844Z,98850.52
2019-05-06T13:39:09.446Z,98845.84
2019-05-06T13:41:24.753Z,98852.12
2019-05-06T13:43:53.945Z,98852.36
2019-05-06T13:46:19.663Z,98853.94
2019-05-06T13:48:46.236Z,98852.97
2019-05-06T13:51:12.843Z,98846.95
2019-05-06T13:53:43.424Z,98853.73
2019-05-06T13:56:07.768Z,98856.63
2019-05-06T13:58:34.317Z,98857.23
2019-05-06T14:01:02.960Z,98853.50
2019-05-06T14:03:29.243Z,98856.39
2019-05-06T14:05:55.873Z,98859.53
2019-05-06T14:08:22.484Z,98856.79
2019-05-06T14:10:57.484Z,98860.16
2019-05-06T14:13:17.380Z,98853.38
2019-05-06T14:15:43.993Z,98852.30
2019-05-06T14:18:13.099Z,98857.36
2019-05-06T14:20:38.973Z,98855.09
2019-05-06T14:23:05.546Z,98859.80
2019-05-06T14:25:33.166Z,98860.03
2019-05-06T14:27:59.912Z,98861.59
2019-05-06T14:30:26.479Z,98864.00
2019-05-06T14:32:53.089Z,98865.60
2019-05-06T14:35:19.657Z,98867.41
2019-05-06T14:37:46.260Z,98868.97
2019-05-06T14:40:12.843Z,98865.59
2019-05-06T14:42:39.455Z,98867.63
2019-05-06T14:45:06.038Z,98874.02
2019-05-06T14:47:32.876Z,98868.14
2019-05-06T14:49:59.490Z,98862.23
2019-05-06T14:52:26.099Z,98879.08
2019-05-06T14:54:53.381Z,98873.16
2019-05-06T14:57:22.589Z,98866.56
2019-05-06T14:59:50.927Z,98870.16
2019-05-06T15:02:16.868Z,98868.96
2019-05-06T15:04:43.775Z,98877.61
2019-05-06T15:07:12.515Z,98878.44
2019-05-06T15:09:53.703Z,98871.09
2019-05-06T15:12:07.119Z,98874.36
2019-05-06T15:14:33.693Z,98877.02
2019-05-06T15:17:02.221Z,98873.52
2019-05-06T15:19:28.588Z,98874.00
2019-05-06T15:21:55.181Z,98875.32
2019-05-06T15:24:24.287Z,98879.66
2019-05-06T15:26:52.134Z,98879.15
2019-05-06T15:29:18.404Z,98867.23
2019-05-06T15:31:45.813Z,98875.06
2019-05-06T15:34:13.077Z,98878.67
2019-05-06T15:36:39.828Z,98870.24
2019-05-06T15:39:06.435Z,98870.72
2019-05-06T15:41:33.005Z,98869.88
2019-05-06T15:43:59.612Z,98872.53
2019-05-06T15:46:26.178Z,98878.67
2019-05-06T15:48:53.023Z,98881.80
2019-05-06T15:51:22.203Z,98876.50
2019-05-06T15:53:49.081Z,98877.02
2019-05-06T15:56:15.653Z,98877.02
2019-05-06T15:58:42.472Z,98877.02
2019-05-06T16:01:09.184Z,98880.62
2019-05-06T16:03:35.839Z,98881.95
2019-05-06T16:06:02.409Z,98885.77
2019-05-06T16:08:29.008Z,98888.56
2019-05-06T16:10:58.706Z,98893.38
2019-05-06T16:13:23.924Z,98906.14
2019-05-06T16:15:50.494Z,98896.37
2019-05-06T16:18:17.134Z,98904.94
2019-05-06T16:20:43.719Z,98910.72
2019-05-06T16:23:10.326Z,98916.97
2019-05-06T16:25:36.910Z,98909.14
2019-05-06T16:28:03.540Z,98919.98
2019-05-06T16:30:30.117Z,98914.69
2019-05-06T16:32:57.770Z,98912.75
2019-05-06T16:35:24.384Z,98896.23
2019-05-06T16:37:50.980Z,98914.27
2019-05-06T16:40:17.548Z,98917.88
2019-05-06T16:42:46.001Z,98912.18
2019-05-06T16:45:12.700Z,98919.39
2019-05-06T16:47:39.311Z,98911.70
2019-05-06T16:50:05.907Z,98911.92
2019-05-06T16:52:33.368Z,98908.63
2019-05-06T16:55:00.353Z,98924.25
2019-05-06T16:57:26.934Z,98920.87
2019-05-06T16:59:53.559Z,98919.43
2019-05-06T17:02:20.130Z,98926.48
2019-05-06T17:04:46.753Z,98935.97
2019-05-06T17:07:13.330Z,98940.74
2019-05-06T17:09:39.926Z,98939.78
2019-05-06T17:12:06.671Z,98943.23
2019-05-06T17:14:33.319Z,98935.62
2019-05-06T17:16:59.928Z,98947.77
2019-05-06T17:19:26.529Z,98942.22
2019-05-06T17:21:53.101Z,98949.05
2019-05-06T17:24:21.884Z,98947.72
2019-05-06T17:26:48.010Z,98944.70
2019-05-06T17:29:14.624Z,98950.11
2019-05-06T17:31:42.366Z,98952.97
2019-05-06T17:34:09.099Z,98953.55
2019-05-06T17:36:35.686Z,98967.38
2019-05-06T17:39:02.880Z,98959.66
2019-05-06T17:41:43.351Z,98961.20
2019-05-06T17:43:57.841Z,98958.29
2019-05-06T17:46:24.411Z,98958.29
2019-05-06T17:48:52.853Z,98958.98
2019-05-06T17:51:19.305Z,98962.20
2019-05-06T17:53:45.907Z,98955.73
2019-05-06T17:56:12.748Z,98973.02
2019-05-06T17:58:39.316Z,98967.95
2019-05-06T18:01:05.933Z,98972.86
2019-05-06T18:03:32.732Z,98982.12
2019-05-06T18:05:59.453Z,98979.10
2019-05-06T18:08:26.058Z,98973.92
2019-05-06T18:10:52.650Z,98979.31
2019-05-06T18:13:19.325Z,98982.91
2019-05-06T18:15:45.961Z,98986.50
2019-05-06T18:18:13.100Z,98990.09
2019-05-06T18:20:39.913Z,98987.82
2019-05-06T18:23:06.507Z,98995.37
2019-05-06T18:25:33.154Z,98994.64
2019-05-06T18:27:59.781Z,98991.66
2019-05-06T18:30:33.695Z,98993.92
2019-05-06T18:32:54.689Z,98997.15
2019-05-06T18:35:23.065Z,98993.77
2019-05-06T18:37:52.068Z,98991.70
2019-05-06T18:40:18.121Z,98996.23
2019-05-06T18:42:44.704Z,99004.27
2019-05-06T18:45:12.333Z,99012.20
2019-05-06T18:47:39.022Z,99018.16
2019-05-06T18:50:05.641Z,99029.82
2019-05-06T18:52:32.711Z,99032.56
2019-05-06T18:54:59.369Z,99030.88
2019-05-06T18:57:25.964Z,99029.17
2019-05-06T18:59:53.348Z,99025.41
2019-05-06T19:02:20.124Z,99024.67
2019-05-06T19:04:46.757Z,99020.53
2019-05-06T19:07:16.831Z,99021.62
2019-05-06T19:09:42.417Z,99019.92
2019-05-06T19:12:09.224Z,99008.23
2019-05-06T19:14:35.803Z,99007.86
2019-05-06T19:17:02.886Z,99008.71
2019-05-06T19:19:29.501Z,99015.31
2019-05-06T19:21:56.091Z,99018.33
2019-05-06T19:24:22.813Z,99024.94
2019-05-06T19:26:49.445Z,99018.33
2019-05-06T19:29:16.028Z,99013.42
2019-05-06T19:31:45.073Z,99017.66
2019-05-06T19:34:12.949Z,99007.66
2019-05-06T19:36:39.283Z,98994.72
2019-05-06T19:39:05.850Z,98984.73
2019-05-06T19:41:33.207Z,98978.88
2019-05-06T19:44:01.948Z,98988.93
2019-05-06T19:46:28.237Z,98995.06
2019-05-06T19:48:54.824Z,98989.78
2019-05-06T19:51:22.499Z,98986.29
2019-05-06T19:53:49.721Z,98979.34
2019-05-06T19:56:16.302Z,98982.09
2019-05-06T19:58:43.040Z,98986.53
2019-05-06T20:01:09.795Z,98980.39
2019-05-06T20:03:36.469Z,98977.75
2019-05-06T20:06:03.056Z,98979.55
2019-05-06T20:08:29.679Z,98997.94
2019-05-06T20:10:56.540Z,98995.30
2019-05-06T20:13:23.285Z,98997.36
2019-05-06T20:15:52.006Z,99001.67
2019-05-06T20:18:18.223Z,98994.59
2019-05-06T20:20:44.807Z,98997.13
2019-05-06T20:23:12.536Z,98992.69
2019-05-06T20:25:39.348Z,98999.19
2019-05-06T20:28:05.970Z,98995.23
2019-05-06T20:30:32.755Z,99002.11
2019-05-06T20:32:59.427Z,98994.55
2019-05-06T20:35:26.002Z,99000.69
2019-05-06T20:37:53.387Z,99005.02
2019-05-06T20:40:22.523Z,99004.65
2019-05-06T20:42:48.518Z,99008.98
2019-05-06T20:45:15.092Z,99010.30
2019-05-06T20:47:42.895Z,99012.95
2019-05-06T20:50:09.679Z,99016.91
2019-05-06T20:52:36.275Z,99022.57
2019-05-06T20:55:03.016Z,99015.12
2019-05-06T20:57:29.640Z,99021.72
2019-05-06T20:59:56.230Z,99021.25
2019-05-06T21:02:25.643Z,99018.13
2019-05-06T21:04:51.142Z,99017.76
2019-05-06T21:07:17.752Z,99012.00
2019-05-06T21:09:44.331Z,99016.71
2019-05-06T21:12:10.940Z,99015.39
2019-05-06T21:14:37.517Z,99016.13
2019-05-06T21:17:04.090Z,99020.44
2019-05-06T21:19:32.931Z,99026.09
2019-05-06T21:21:59.005Z,99029.11
2019-05-06T21:24:25.639Z,99032.97
2019-05-06T21:26:53.164Z,99036.84
2019-05-06T21:29:20.005Z,99034.56
2019-05-06T21:31:46.622Z,99034.56
2019-05-06T21:34:13.230Z,99027.01
2019-05-06T21:36:42.055Z,99031.82
2019-05-06T21:39:08.127Z,99023.99
2019-05-06T21:41:34.694Z,99023.14
2019-05-06T21:44:02.435Z,99017.86
2019-05-06T21:46:29.170Z,99010.30
2019-05-06T21:48:55.788Z,99016.53
2019-05-06T21:51:22.365Z,99017.38
2019-05-06T21:53:48.958Z,99013.89
2019-05-06T21:56:15.552Z,99008.71
2019-05-06T21:58:42.783Z,99011.56
2019-05-06T22:01:09.508Z,99009.86
2019-05-06T22:03:36.116Z,99006.23
2019-05-06T22:06:02.700Z,99002.01
2019-05-06T22:08:29.318Z,99002.58
2019-05-06T22:10:55.899Z,99008.81
2019-05-06T22:13:22.498Z,98997.50
2019-05-06T22:15:49.068Z,98995.70
2019-05-06T22:18:15.675Z,98991.74
2019-05-06T22:20:42.363Z,98992.22
2019-05-06T22:23:09.055Z,98989.58
2019-05-06T22:25:35.625Z,98993.16
2019-05-06T22:28:02.501Z,98991.37
2019-05-06T22:30:29.188Z,98986.94
2019-05-06T22:32:55.795Z,98982.97
2019-05-06T22:35:23.074Z,98996.18
2019-05-06T22:37:52.914Z,98993.06
2019-05-06T22:40:19.409Z,98993.53
2019-05-06T22:42:46.001Z,98993.16
2019-05-06T22:45:12.705Z,98994.96
2019-05-06T22:47:39.351Z,99004.11
2019-05-06T22:50:06.748Z,98998.82
2019-05-06T22:52:33.321Z,98999.40
2019-05-06T22:55:03.731Z,98996.75
2019-05-06T22:57:28.225Z,98999.02
2019-05-06T22:59:54.834Z,98996.99
2019-05-06T23:02:22.591Z,99001.33
2019-05-06T23:04:49.293Z,99003.97
2019-05-06T23:07:15.870Z,99008.88
2019-05-06T23:09:42.704Z,99011.52
2019-05-06T23:12:09.398Z,99010.41
2019-05-06T23:14:37.317Z,99008.23
2019-05-06T23:17:04.015Z,99010.03
2019-05-06T23:19:31.811Z,99003.05
2019-05-06T23:21:58.472Z,98998.72
2019-05-06T23:24:25.087Z,98998.72
2019-05-06T23:26:52.704Z,98998.72
2019-05-06T23:29:22.309Z,98998.72
2019-05-06T23:31:48.314Z,99005.32
2019-05-06T23:34:14.948Z,99002.31
2019-05-06T23:36:41.720Z,99001.94
2019-05-06T23:39:09.838Z,98999.87
2019-05-06T23:41:36.397Z,98997.60
2019-05-06T23:44:02.990Z,98996.38
2019-05-06T23:46:29.572Z,98993.27
2019-05-06T23:48:56.150Z,98996.48
2019-05-06T23:51:22.794Z,99003.56
2019-05-06T23:53:49.366Z,99004.03
2019-05-06T23:56:15.946Z,98995.73
2019-05-06T23:58:42.923Z,99000.30
